sensor_id;sensor_type;location;lat;lon;timestamp;P1;durP1;ratioP1;P2;durP2;ratioP2
53666;SDS011;39568;51.026;5.468;2022-10-03T00:00:33;29.17;;;11.82;;
53666;SDS011;39568;51.026;5.468;2022-10-03T00:03:17;34.03;;;13.45;;
53666;SDS011;39568;51.026;5.468;2022-10-03T00:05:57;29.40;;;12.07;;
53666;SDS011;39568;51.026;5.468;2022-10-03T00:08:43;45.00;;;12.35;;
53666;SDS011;39568;51.026;5.468;2022-10-03T00:11:34;30.88;;;13.43;;
53666;SDS011;39568;51.026;5.468;2022-10-03T00:14:11;45.15;;;15.68;;
53666;SDS011;39568;51.026;5.468;2022-10-03T00:16:44;40.97;;;16.45;;
53666;SDS011;39568;51.026;5.468;2022-10-03T00:19:21;38.55;;;15.57;;
53666;SDS011;39568;51.026;5.468;2022-10-03T00:21:58;33.40;;;14.15;;
53666;SDS011;39568;51.026;5.468;2022-10-03T00:24:40;43.03;;;16.48;;
53666;SDS011;39568;51.026;5.468;2022-10-03T00:27:16;41.03;;;15.57;;
53666;SDS011;39568;51.026;5.468;2022-10-03T00:29:59;52.58;;;15.93;;
53666;SDS011;39568;51.026;5.468;2022-10-03T00:32:45;45.30;;;15.50;;
53666;SDS011;39568;51.026;5.468;2022-10-03T00:35:39;46.03;;;16.45;;
53666;SDS011;39568;51.026;5.468;2022-10-03T00:38:21;44.08;;;16.38;;
53666;SDS011;39568;51.026;5.468;2022-10-03T00:41:11;42.42;;;16.30;;
53666;SDS011;39568;51.026;5.468;2022-10-03T00:43:58;64.43;;;14.93;;
53666;SDS011;39568;51.026;5.468;2022-10-03T00:46:52;43.60;;;14.18;;
53666;SDS011;39568;51.026;5.468;2022-10-03T00:49:51;50.58;;;15.98;;
53666;SDS011;39568;51.026;5.468;2022-10-03T00:55:26;53.97;;;15.75;;
53666;SDS011;39568;51.026;5.468;2022-10-03T00:58:10;56.78;;;15.98;;
53666;SDS011;39568;51.026;5.468;2022-10-03T01:00:49;55.10;;;13.90;;
53666;SDS011;39568;51.026;5.468;2022-10-03T01:03:28;37.40;;;13.43;;
53666;SDS011;39568;51.026;5.468;2022-10-03T01:06:08;27.83;;;13.05;;
53666;SDS011;39568;51.026;5.468;2022-10-03T01:08:56;49.55;;;14.77;;
53666;SDS011;39568;51.026;5.468;2022-10-03T01:11:44;46.03;;;13.70;;
53666;SDS011;39568;51.026;5.468;2022-10-03T01:14:38;48.40;;;14.90;;
53666;SDS011;39568;51.026;5.468;2022-10-03T01:17:20;48.47;;;14.52;;
53666;SDS011;39568;51.026;5.468;2022-10-03T01:20:10;40.40;;;14.45;;
53666;SDS011;39568;51.026;5.468;2022-10-03T01:23:01;45.33;;;15.55;;
53666;SDS011;39568;51.026;5.468;2022-10-03T01:25:47;37.00;;;13.25;;
53666;SDS011;39568;51.026;5.468;2022-10-03T01:28:36;37.08;;;13.25;;
53666;SDS011;39568;51.026;5.468;2022-10-03T01:31:27;36.03;;;13.00;;
53666;SDS011;39568;51.026;5.468;2022-10-03T01:34:04;40.53;;;12.75;;
53666;SDS011;39568;51.026;5.468;2022-10-03T01:36:37;36.45;;;11.77;;
53666;SDS011;39568;51.026;5.468;2022-10-03T01:39:10;41.75;;;10.50;;
53666;SDS011;39568;51.026;5.468;2022-10-03T01:41:49;37.05;;;12.32;;
53666;SDS011;39568;51.026;5.468;2022-10-03T01:44:27;41.33;;;12.07;;
53666;SDS011;39568;51.026;5.468;2022-10-03T01:47:08;41.55;;;11.60;;
53666;SDS011;39568;51.026;5.468;2022-10-03T01:49:47;28.15;;;11.52;;
53666;SDS011;39568;51.026;5.468;2022-10-03T01:52:20;33.90;;;11.63;;
53666;SDS011;39568;51.026;5.468;2022-10-03T01:54:57;21.50;;;10.68;;
53666;SDS011;39568;51.026;5.468;2022-10-03T01:57:48;39.67;;;10.35;;
53666;SDS011;39568;51.026;5.468;2022-10-03T02:00:21;37.38;;;10.40;;
53666;SDS011;39568;51.026;5.468;2022-10-03T02:02:51;37.35;;;11.75;;
53666;SDS011;39568;51.026;5.468;2022-10-03T02:05:27;31.23;;;10.43;;
53666;SDS011;39568;51.026;5.468;2022-10-03T02:08:04;48.25;;;10.93;;
53666;SDS011;39568;51.026;5.468;2022-10-03T02:10:49;35.00;;;11.15;;
53666;SDS011;39568;51.026;5.468;2022-10-03T02:13:22;42.53;;;11.98;;
53666;SDS011;39568;51.026;5.468;2022-10-03T02:15:56;35.50;;;11.25;;
53666;SDS011;39568;51.026;5.468;2022-10-03T02:18:33;33.22;;;9.80;;
53666;SDS011;39568;51.026;5.468;2022-10-03T02:21:13;42.78;;;11.90;;
53666;SDS011;39568;51.026;5.468;2022-10-03T02:23:43;29.95;;;11.10;;
53666;SDS011;39568;51.026;5.468;2022-10-03T02:26:19;29.38;;;11.80;;
53666;SDS011;39568;51.026;5.468;2022-10-03T02:29:17;41.20;;;12.00;;
53666;SDS011;39568;51.026;5.468;2022-10-03T02:38:38;39.45;;;13.73;;
53666;SDS011;39568;51.026;5.468;2022-10-03T02:41:31;33.38;;;13.38;;
53666;SDS011;39568;51.026;5.468;2022-10-03T02:44:20;37.60;;;12.90;;
53666;SDS011;39568;51.026;5.468;2022-10-03T02:47:17;43.90;;;13.77;;
53666;SDS011;39568;51.026;5.468;2022-10-03T03:05:25;220.45;;;25.02;;
53666;SDS011;39568;51.026;5.468;2022-10-03T03:14:15;289.58;;;28.83;;
53666;SDS011;39568;51.026;5.468;2022-10-03T03:17:09;258.67;;;25.33;;
53666;SDS011;39568;51.026;5.468;2022-10-03T03:19:46;254.43;;;25.70;;
53666;SDS011;39568;51.026;5.468;2022-10-03T03:22:31;271.38;;;26.35;;
53666;SDS011;39568;51.026;5.468;2022-10-03T03:25:10;159.93;;;20.58;;
53666;SDS011;39568;51.026;5.468;2022-10-03T03:27:46;236.80;;;23.87;;
53666;SDS011;39568;51.026;5.468;2022-10-03T03:30:20;230.40;;;22.90;;
53666;SDS011;39568;51.026;5.468;2022-10-03T03:32:53;227.98;;;22.60;;
53666;SDS011;39568;51.026;5.468;2022-10-03T03:35:32;321.95;;;27.38;;
53666;SDS011;39568;51.026;5.468;2022-10-03T03:38:11;225.45;;;22.20;;
53666;SDS011;39568;51.026;5.468;2022-10-03T03:40:54;311.88;;;25.65;;
53666;SDS011;39568;51.026;5.468;2022-10-03T03:43:35;222.35;;;22.73;;
53666;SDS011;39568;51.026;5.468;2022-10-03T03:46:20;130.02;;;18.05;;
53666;SDS011;39568;51.026;5.468;2022-10-03T03:49:02;228.27;;;20.85;;
53666;SDS011;39568;51.026;5.468;2022-10-03T03:51:56;348.77;;;31.85;;
53666;SDS011;39568;51.026;5.468;2022-10-03T03:54:42;288.52;;;28.13;;
53666;SDS011;39568;51.026;5.468;2022-10-03T03:57:22;367.63;;;31.02;;
53666;SDS011;39568;51.026;5.468;2022-10-03T04:00:08;212.65;;;23.92;;
53666;SDS011;39568;51.026;5.468;2022-10-03T04:02:52;310.75;;;26.27;;
53666;SDS011;39568;51.026;5.468;2022-10-03T04:05:31;216.02;;;22.30;;
53666;SDS011;39568;51.026;5.468;2022-10-03T04:08:11;260.63;;;25.40;;
53666;SDS011;39568;51.026;5.468;2022-10-03T04:11:04;106.80;;;17.27;;
53666;SDS011;39568;51.026;5.468;2022-10-03T04:13:57;119.78;;;20.40;;
53666;SDS011;39568;51.026;5.468;2022-10-03T04:16:46;139.70;;;19.30;;
53666;SDS011;39568;51.026;5.468;2022-10-03T04:19:42;95.10;;;17.85;;
53666;SDS011;39568;51.026;5.468;2022-10-03T04:22:18;142.85;;;21.77;;
53666;SDS011;39568;51.026;5.468;2022-10-03T04:25:03;122.10;;;21.10;;
53666;SDS011;39568;51.026;5.468;2022-10-03T04:31:01;120.65;;;22.55;;
53666;SDS011;39568;51.026;5.468;2022-10-03T04:33:37;117.82;;;21.23;;
53666;SDS011;39568;51.026;5.468;2022-10-03T04:36:37;244.50;;;25.70;;
53666;SDS011;39568;51.026;5.468;2022-10-03T04:39:15;304.73;;;30.63;;
53666;SDS011;39568;51.026;5.468;2022-10-03T04:41:52;374.25;;;33.97;;
53666;SDS011;39568;51.026;5.468;2022-10-03T04:44:34;300.27;;;23.85;;
53666;SDS011;39568;51.026;5.468;2022-10-03T04:47:14;335.00;;;26.75;;
53666;SDS011;39568;51.026;5.468;2022-10-03T04:49:46;397.42;;;34.90;;
53666;SDS011;39568;51.026;5.468;2022-10-03T04:52:22;256.55;;;26.83;;
53666;SDS011;39568;51.026;5.468;2022-10-03T04:54:58;366.70;;;30.85;;
53666;SDS011;39568;51.026;5.468;2022-10-03T04:57:34;392.58;;;28.85;;
53666;SDS011;39568;51.026;5.468;2022-10-03T05:00:19;130.15;;;20.73;;
53666;SDS011;39568;51.026;5.468;2022-10-03T05:02:50;104.13;;;17.33;;
53666;SDS011;39568;51.026;5.468;2022-10-03T05:05:25;248.30;;;22.40;;
53666;SDS011;39568;51.026;5.468;2022-10-03T05:08:02;170.95;;;22.67;;
53666;SDS011;39568;51.026;5.468;2022-10-03T05:10:54;336.67;;;30.42;;
53666;SDS011;39568;51.026;5.468;2022-10-03T05:13:35;144.43;;;22.02;;
53666;SDS011;39568;51.026;5.468;2022-10-03T05:16:14;179.00;;;19.88;;
53666;SDS011;39568;51.026;5.468;2022-10-03T05:18:48;276.65;;;26.88;;
53666;SDS011;39568;51.026;5.468;2022-10-03T05:21:23;190.20;;;23.67;;
53666;SDS011;39568;51.026;5.468;2022-10-03T05:23:57;161.32;;;22.83;;
53666;SDS011;39568;51.026;5.468;2022-10-03T05:26:37;157.88;;;22.58;;
53666;SDS011;39568;51.026;5.468;2022-10-03T05:29:13;452.40;;;39.10;;
53666;SDS011;39568;51.026;5.468;2022-10-03T05:31:46;675.35;;;61.53;;
53666;SDS011;39568;51.026;5.468;2022-10-03T05:34:22;651.17;;;54.00;;
53666;SDS011;39568;51.026;5.468;2022-10-03T05:37:13;171.40;;;40.30;;
53666;SDS011;39568;51.026;5.468;2022-10-03T05:39:52;106.03;;;38.17;;
53666;SDS011;39568;51.026;5.468;2022-10-03T05:42:33;84.00;;;24.00;;
53666;SDS011;39568;51.026;5.468;2022-10-03T05:45:16;120.13;;;39.35;;
53666;SDS011;39568;51.026;5.468;2022-10-03T05:47:52;80.80;;;27.83;;
53666;SDS011;39568;51.026;5.468;2022-10-03T05:50:33;68.55;;;19.42;;
53666;SDS011;39568;51.026;5.468;2022-10-03T05:53:31;60.00;;;22.83;;
53666;SDS011;39568;51.026;5.468;2022-10-03T05:56:18;88.22;;;20.30;;
53666;SDS011;39568;51.026;5.468;2022-10-03T06:05:15;45.45;;;15.27;;
53666;SDS011;39568;51.026;5.468;2022-10-03T06:07:59;46.85;;;17.05;;
53666;SDS011;39568;51.026;5.468;2022-10-03T06:10:51;51.25;;;16.23;;
53666;SDS011;39568;51.026;5.468;2022-10-03T06:13:32;46.40;;;18.00;;
53666;SDS011;39568;51.026;5.468;2022-10-03T06:16:14;42.92;;;15.80;;
53666;SDS011;39568;51.026;5.468;2022-10-03T06:19:01;45.30;;;16.38;;
53666;SDS011;39568;51.026;5.468;2022-10-03T06:24:49;38.55;;;15.63;;
53666;SDS011;39568;51.026;5.468;2022-10-03T06:33:55;37.05;;;16.15;;
53666;SDS011;39568;51.026;5.468;2022-10-03T06:36:47;36.40;;;15.90;;
53666;SDS011;39568;51.026;5.468;2022-10-03T06:42:47;47.33;;;16.33;;
53666;SDS011;39568;51.026;5.468;2022-10-03T06:48:33;31.45;;;16.13;;
53666;SDS011;39568;51.026;5.468;2022-10-03T06:57:41;58.53;;;26.52;;
53666;SDS011;39568;51.026;5.468;2022-10-03T07:00:31;60.95;;;22.55;;
53666;SDS011;39568;51.026;5.468;2022-10-03T07:03:22;82.88;;;34.65;;
53666;SDS011;39568;51.026;5.468;2022-10-03T07:06:05;74.72;;;27.40;;
53666;SDS011;39568;51.026;5.468;2022-10-03T07:15:28;63.05;;;26.45;;
53666;SDS011;39568;51.026;5.468;2022-10-03T07:21:23;69.38;;;21.23;;
53666;SDS011;39568;51.026;5.468;2022-10-03T07:24:18;49.63;;;21.40;;
53666;SDS011;39568;51.026;5.468;2022-10-03T07:27:11;49.30;;;20.90;;
53666;SDS011;39568;51.026;5.468;2022-10-03T07:35:52;52.05;;;19.95;;
53666;SDS011;39568;51.026;5.468;2022-10-03T07:42:12;46.85;;;20.42;;
53666;SDS011;39568;51.026;5.468;2022-10-03T07:45:02;46.00;;;19.55;;
53666;SDS011;39568;51.026;5.468;2022-10-03T07:47:58;48.40;;;16.70;;
53666;SDS011;39568;51.026;5.468;2022-10-03T07:56:49;38.83;;;16.25;;
53666;SDS011;39568;51.026;5.468;2022-10-03T08:02:40;41.13;;;15.95;;
53666;SDS011;39568;51.026;5.468;2022-10-03T08:05:19;28.88;;;15.68;;
53666;SDS011;39568;51.026;5.468;2022-10-03T08:14:07;26.40;;;13.15;;
53666;SDS011;39568;51.026;5.468;2022-10-03T08:17:04;29.98;;;12.77;;
53666;SDS011;39568;51.026;5.468;2022-10-03T08:20:04;23.92;;;13.57;;
53666;SDS011;39568;51.026;5.468;2022-10-03T08:22:56;19.50;;;13.02;;
53666;SDS011;39568;51.026;5.468;2022-10-03T08:25:42;21.40;;;10.55;;
53666;SDS011;39568;51.026;5.468;2022-10-03T08:28:37;22.75;;;11.35;;
53666;SDS011;39568;51.026;5.468;2022-10-03T08:34:28;23.90;;;9.20;;
53666;SDS011;39568;51.026;5.468;2022-10-03T08:53:58;17.75;;;6.82;;
53666;SDS011;39568;51.026;5.468;2022-10-03T08:59:52;20.35;;;7.47;;
53666;SDS011;39568;51.026;5.468;2022-10-03T09:02:47;16.15;;;7.30;;
53666;SDS011;39568;51.026;5.468;2022-10-03T09:15:02;11.65;;;6.15;;
53666;SDS011;39568;51.026;5.468;2022-10-03T09:17:45;13.77;;;5.72;;
53666;SDS011;39568;51.026;5.468;2022-10-03T09:26:58;12.07;;;5.45;;
53666;SDS011;39568;51.026;5.468;2022-10-03T09:33:08;7.95;;;4.40;;
53666;SDS011;39568;51.026;5.468;2022-10-03T09:36:11;14.13;;;4.40;;
53666;SDS011;39568;51.026;5.468;2022-10-03T09:45:07;14.75;;;3.83;;
53666;SDS011;39568;51.026;5.468;2022-10-03T09:51:14;9.20;;;3.45;;
53666;SDS011;39568;51.026;5.468;2022-10-03T09:57:01;10.40;;;3.03;;
53666;SDS011;39568;51.026;5.468;2022-10-03T09:59:37;6.10;;;2.97;;
53666;SDS011;39568;51.026;5.468;2022-10-03T10:02:28;9.50;;;3.50;;
53666;SDS011;39568;51.026;5.468;2022-10-03T10:05:25;14.70;;;3.45;;
53666;SDS011;39568;51.026;5.468;2022-10-03T10:08:16;13.75;;;2.70;;
53666;SDS011;39568;51.026;5.468;2022-10-03T10:13:44;9.68;;;3.00;;
53666;SDS011;39568;51.026;5.468;2022-10-03T10:16:38;10.70;;;2.35;;
53666;SDS011;39568;51.026;5.468;2022-10-03T10:25:34;7.07;;;2.08;;
53666;SDS011;39568;51.026;5.468;2022-10-03T10:31:43;8.27;;;2.20;;
53666;SDS011;39568;51.026;5.468;2022-10-03T10:34:49;10.95;;;1.60;;
53666;SDS011;39568;51.026;5.468;2022-10-03T10:37:52;6.30;;;1.67;;
53666;SDS011;39568;51.026;5.468;2022-10-03T10:47:11;3.05;;;1.10;;
53666;SDS011;39568;51.026;5.468;2022-10-03T11:05:33;2.80;;;1.27;;
53666;SDS011;39568;51.026;5.468;2022-10-03T11:11:33;8.38;;;1.70;;
53666;SDS011;39568;51.026;5.468;2022-10-03T11:17:34;6.47;;;1.45;;
53666;SDS011;39568;51.026;5.468;2022-10-03T11:23:59;8.48;;;1.27;;
53666;SDS011;39568;51.026;5.468;2022-10-03T11:39:05;10.82;;;1.38;;
53666;SDS011;39568;51.026;5.468;2022-10-03T11:41:39;11.57;;;1.35;;
53666;SDS011;39568;51.026;5.468;2022-10-03T11:44:14;5.60;;;1.45;;
53666;SDS011;39568;51.026;5.468;2022-10-03T11:46:58;3.63;;;1.58;;
53666;SDS011;39568;51.026;5.468;2022-10-03T11:50:04;3.00;;;1.02;;
53666;SDS011;39568;51.026;5.468;2022-10-03T11:52:56;3.67;;;1.20;;
53666;SDS011;39568;51.026;5.468;2022-10-03T11:55:39;4.10;;;1.10;;
53666;SDS011;39568;51.026;5.468;2022-10-03T11:58:18;5.85;;;1.00;;
53666;SDS011;39568;51.026;5.468;2022-10-03T12:00:59;6.43;;;1.80;;
53666;SDS011;39568;51.026;5.468;2022-10-03T12:03:43;6.97;;;1.63;;
53666;SDS011;39568;51.026;5.468;2022-10-03T12:06:21;5.05;;;1.40;;
53666;SDS011;39568;51.026;5.468;2022-10-03T12:09:27;4.00;;;1.25;;
53666;SDS011;39568;51.026;5.468;2022-10-03T12:12:04;6.00;;;1.20;;
53666;SDS011;39568;51.026;5.468;2022-10-03T12:14:39;5.75;;;1.88;;
53666;SDS011;39568;51.026;5.468;2022-10-03T12:17:11;7.63;;;1.63;;
53666;SDS011;39568;51.026;5.468;2022-10-03T12:19:46;4.45;;;1.70;;
53666;SDS011;39568;51.026;5.468;2022-10-03T12:22:33;5.75;;;1.10;;
53666;SDS011;39568;51.026;5.468;2022-10-03T12:25:15;8.60;;;1.95;;
53666;SDS011;39568;51.026;5.468;2022-10-03T12:27:55;5.28;;;1.40;;
53666;SDS011;39568;51.026;5.468;2022-10-03T12:30:27;9.35;;;1.15;;
53666;SDS011;39568;51.026;5.468;2022-10-03T12:33:07;6.28;;;1.63;;
53666;SDS011;39568;51.026;5.468;2022-10-03T12:35:48;4.82;;;1.30;;
53666;SDS011;39568;51.026;5.468;2022-10-03T12:38:29;4.97;;;0.98;;
53666;SDS011;39568;51.026;5.468;2022-10-03T12:41:08;4.55;;;1.05;;
53666;SDS011;39568;51.026;5.468;2022-10-03T12:43:50;6.40;;;1.10;;
53666;SDS011;39568;51.026;5.468;2022-10-03T12:46:36;3.80;;;1.67;;
53666;SDS011;39568;51.026;5.468;2022-10-03T12:49:12;7.80;;;2.08;;
53666;SDS011;39568;51.026;5.468;2022-10-03T12:51:50;4.78;;;1.17;;
53666;SDS011;39568;51.026;5.468;2022-10-03T12:54:27;4.53;;;1.10;;
53666;SDS011;39568;51.026;5.468;2022-10-03T12:57:14;2.60;;;0.80;;
53666;SDS011;39568;51.026;5.468;2022-10-03T12:59:59;5.32;;;1.40;;
53666;SDS011;39568;51.026;5.468;2022-10-03T13:02:30;4.00;;;1.40;;
53666;SDS011;39568;51.026;5.468;2022-10-03T13:05:21;8.25;;;1.38;;
53666;SDS011;39568;51.026;5.468;2022-10-03T13:07:55;2.83;;;1.13;;
53666;SDS011;39568;51.026;5.468;2022-10-03T13:10:28;4.95;;;1.48;;
53666;SDS011;39568;51.026;5.468;2022-10-03T13:13:03;6.00;;;1.27;;
53666;SDS011;39568;51.026;5.468;2022-10-03T13:18:50;4.18;;;1.55;;
53666;SDS011;39568;51.026;5.468;2022-10-03T13:21:42;6.93;;;1.55;;
53666;SDS011;39568;51.026;5.468;2022-10-03T13:24:20;9.57;;;1.50;;
53666;SDS011;39568;51.026;5.468;2022-10-03T13:26:59;3.58;;;1.05;;
53666;SDS011;39568;51.026;5.468;2022-10-03T13:29:34;8.30;;;2.13;;
53666;SDS011;39568;51.026;5.468;2022-10-03T13:32:09;7.53;;;1.40;;
53666;SDS011;39568;51.026;5.468;2022-10-03T13:41:23;7.18;;;2.50;;
53666;SDS011;39568;51.026;5.468;2022-10-03T13:43:58;2.97;;;1.35;;
53666;SDS011;39568;51.026;5.468;2022-10-03T13:46:30;4.03;;;1.25;;
53666;SDS011;39568;51.026;5.468;2022-10-03T13:49:03;6.13;;;1.60;;
53666;SDS011;39568;51.026;5.468;2022-10-03T13:51:39;32.03;;;14.00;;
53666;SDS011;39568;51.026;5.468;2022-10-03T13:54:12;31.70;;;12.25;;
53666;SDS011;39568;51.026;5.468;2022-10-03T13:56:50;63.05;;;21.50;;
53666;SDS011;39568;51.026;5.468;2022-10-03T13:59:38;16.63;;;8.68;;
53666;SDS011;39568;51.026;5.468;2022-10-03T14:02:16;22.23;;;11.45;;
53666;SDS011;39568;51.026;5.468;2022-10-03T14:08:09;7.55;;;1.45;;
53666;SDS011;39568;51.026;5.468;2022-10-03T14:13:36;6.55;;;1.60;;
53666;SDS011;39568;51.026;5.468;2022-10-03T14:16:17;4.97;;;1.25;;
53666;SDS011;39568;51.026;5.468;2022-10-03T14:18:58;12.07;;;3.15;;
53666;SDS011;39568;51.026;5.468;2022-10-03T14:24:25;4.18;;;2.00;;
53666;SDS011;39568;51.026;5.468;2022-10-03T14:27:02;7.85;;;6.03;;
53666;SDS011;39568;51.026;5.468;2022-10-03T14:29:37;7.10;;;1.23;;
53666;SDS011;39568;51.026;5.468;2022-10-03T14:32:12;2.55;;;1.45;;
53666;SDS011;39568;51.026;5.468;2022-10-03T14:34:48;2.75;;;1.05;;
53666;SDS011;39568;51.026;5.468;2022-10-03T14:37:23;10.02;;;0.98;;
53666;SDS011;39568;51.026;5.468;2022-10-03T14:40:01;15.10;;;7.22;;
53666;SDS011;39568;51.026;5.468;2022-10-03T14:42:42;18.38;;;6.68;;
53666;SDS011;39568;51.026;5.468;2022-10-03T14:45:20;10.02;;;3.67;;
53666;SDS011;39568;51.026;5.468;2022-10-03T14:47:51;17.80;;;8.90;;
53666;SDS011;39568;51.026;5.468;2022-10-03T14:50:27;100.65;;;64.07;;
53666;SDS011;39568;51.026;5.468;2022-10-03T14:52:57;12.40;;;2.90;;
53666;SDS011;39568;51.026;5.468;2022-10-03T14:55:29;7.20;;;2.10;;
53666;SDS011;39568;51.026;5.468;2022-10-03T14:57:58;1.93;;;0.80;;
53666;SDS011;39568;51.026;5.468;2022-10-03T15:00:36;2.08;;;1.02;;
53666;SDS011;39568;51.026;5.468;2022-10-03T15:08:57;12.55;;;11.40;;
53666;SDS011;39568;51.026;5.468;2022-10-03T15:11:31;9.00;;;1.77;;
53666;SDS011;39568;51.026;5.468;2022-10-03T15:14:01;2.05;;;1.52;;
53666;SDS011;39568;51.026;5.468;2022-10-03T15:16:31;13.10;;;1.58;;
53666;SDS011;39568;51.026;5.468;2022-10-03T15:19:02;8.52;;;2.00;;
53666;SDS011;39568;51.026;5.468;2022-10-03T15:21:36;2.08;;;1.13;;
53666;SDS011;39568;51.026;5.468;2022-10-03T15:24:12;3.03;;;1.45;;
53666;SDS011;39568;51.026;5.468;2022-10-03T15:26:47;5.60;;;1.52;;
53666;SDS011;39568;51.026;5.468;2022-10-03T15:29:18;4.22;;;1.17;;
53666;SDS011;39568;51.026;5.468;2022-10-03T15:31:48;14.23;;;2.40;;
53666;SDS011;39568;51.026;5.468;2022-10-03T15:34:19;4.25;;;1.77;;
53666;SDS011;39568;51.026;5.468;2022-10-03T15:36:56;4.55;;;1.42;;
53666;SDS011;39568;51.026;5.468;2022-10-03T15:41:55;14.02;;;3.97;;
53666;SDS011;39568;51.026;5.468;2022-10-03T15:44:30;2.92;;;2.13;;
53666;SDS011;39568;51.026;5.468;2022-10-03T15:47:04;11.52;;;1.85;;
53666;SDS011;39568;51.026;5.468;2022-10-03T15:49:36;11.05;;;2.35;;
53666;SDS011;39568;51.026;5.468;2022-10-03T15:52:09;2.67;;;1.23;;
53666;SDS011;39568;51.026;5.468;2022-10-03T15:54:43;5.10;;;2.15;;
53666;SDS011;39568;51.026;5.468;2022-10-03T15:57:20;5.13;;;1.55;;
53666;SDS011;39568;51.026;5.468;2022-10-03T15:59:52;5.35;;;2.70;;
53666;SDS011;39568;51.026;5.468;2022-10-03T16:02:25;6.20;;;2.05;;
53666;SDS011;39568;51.026;5.468;2022-10-03T16:05:15;19.05;;;2.05;;
53666;SDS011;39568;51.026;5.468;2022-10-03T16:07:48;7.75;;;2.40;;
53666;SDS011;39568;51.026;5.468;2022-10-03T16:10:23;12.43;;;3.38;;
53666;SDS011;39568;51.026;5.468;2022-10-03T16:13:01;13.55;;;2.85;;
53666;SDS011;39568;51.026;5.468;2022-10-03T16:15:40;9.07;;;2.38;;
53666;SDS011;39568;51.026;5.468;2022-10-03T16:18:40;8.88;;;2.63;;
53666;SDS011;39568;51.026;5.468;2022-10-03T16:21:13;17.30;;;4.82;;
53666;SDS011;39568;51.026;5.468;2022-10-03T16:23:46;12.07;;;4.05;;
53666;SDS011;39568;51.026;5.468;2022-10-03T16:26:28;12.25;;;3.90;;
53666;SDS011;39568;51.026;5.468;2022-10-03T16:29:05;9.70;;;2.55;;
53666;SDS011;39568;51.026;5.468;2022-10-03T16:31:38;6.45;;;1.65;;
53666;SDS011;39568;51.026;5.468;2022-10-03T16:34:11;6.38;;;3.13;;
53666;SDS011;39568;51.026;5.468;2022-10-03T16:36:40;4.97;;;1.88;;
53666;SDS011;39568;51.026;5.468;2022-10-03T16:39:18;7.65;;;3.05;;
53666;SDS011;39568;51.026;5.468;2022-10-03T16:41:53;6.40;;;2.30;;
53666;SDS011;39568;51.026;5.468;2022-10-03T16:44:24;8.40;;;2.10;;
53666;SDS011;39568;51.026;5.468;2022-10-03T16:46:54;10.50;;;3.25;;
53666;SDS011;39568;51.026;5.468;2022-10-03T16:49:32;20.65;;;3.08;;
53666;SDS011;39568;51.026;5.468;2022-10-03T16:52:23;10.13;;;3.83;;
53666;SDS011;39568;51.026;5.468;2022-10-03T16:55:04;4.55;;;2.85;;
53666;SDS011;39568;51.026;5.468;2022-10-03T16:57:40;7.95;;;4.65;;
53666;SDS011;39568;51.026;5.468;2022-10-03T17:00:14;7.60;;;3.05;;
53666;SDS011;39568;51.026;5.468;2022-10-03T17:02:45;12.15;;;4.10;;
53666;SDS011;39568;51.026;5.468;2022-10-03T17:05:13;21.70;;;7.75;;
53666;SDS011;39568;51.026;5.468;2022-10-03T17:07:41;11.63;;;5.53;;
53666;SDS011;39568;51.026;5.468;2022-10-03T17:10:19;11.45;;;4.35;;
53666;SDS011;39568;51.026;5.468;2022-10-03T17:12:52;14.43;;;4.25;;
53666;SDS011;39568;51.026;5.468;2022-10-03T17:15:23;15.15;;;3.70;;
53666;SDS011;39568;51.026;5.468;2022-10-03T17:17:55;7.35;;;2.80;;
53666;SDS011;39568;51.026;5.468;2022-10-03T17:20:32;11.55;;;2.67;;
53666;SDS011;39568;51.026;5.468;2022-10-03T17:23:07;11.63;;;4.05;;
53666;SDS011;39568;51.026;5.468;2022-10-03T17:25:43;13.25;;;3.90;;
53666;SDS011;39568;51.026;5.468;2022-10-03T17:28:18;9.40;;;2.65;;
53666;SDS011;39568;51.026;5.468;2022-10-03T17:30:55;8.57;;;3.40;;
53666;SDS011;39568;51.026;5.468;2022-10-03T17:33:28;11.98;;;3.88;;
53666;SDS011;39568;51.026;5.468;2022-10-03T17:36:13;8.52;;;2.85;;
53666;SDS011;39568;51.026;5.468;2022-10-03T17:39:01;6.53;;;3.90;;
53666;SDS011;39568;51.026;5.468;2022-10-03T17:41:32;22.95;;;8.05;;
53666;SDS011;39568;51.026;5.468;2022-10-03T17:44:11;22.75;;;6.15;;
53666;SDS011;39568;51.026;5.468;2022-10-03T17:46:48;20.47;;;4.00;;
53666;SDS011;39568;51.026;5.468;2022-10-03T17:49:23;14.15;;;4.95;;
53666;SDS011;39568;51.026;5.468;2022-10-03T17:52:03;13.38;;;5.05;;
53666;SDS011;39568;51.026;5.468;2022-10-03T17:54:37;18.92;;;6.82;;
53666;SDS011;39568;51.026;5.468;2022-10-03T17:57:11;24.17;;;7.57;;
53666;SDS011;39568;51.026;5.468;2022-10-03T17:59:46;17.73;;;8.73;;
53666;SDS011;39568;51.026;5.468;2022-10-03T18:02:19;22.70;;;8.18;;
53666;SDS011;39568;51.026;5.468;2022-10-03T18:04:54;7.50;;;6.13;;
53666;SDS011;39568;51.026;5.468;2022-10-03T18:07:28;22.25;;;6.07;;
53666;SDS011;39568;51.026;5.468;2022-10-03T18:09:58;16.75;;;6.45;;
53666;SDS011;39568;51.026;5.468;2022-10-03T18:12:29;16.00;;;6.80;;
53666;SDS011;39568;51.026;5.468;2022-10-03T18:15:05;19.50;;;8.00;;
53666;SDS011;39568;51.026;5.468;2022-10-03T18:20:41;17.67;;;8.63;;
53666;SDS011;39568;51.026;5.468;2022-10-03T18:23:17;22.33;;;9.02;;
53666;SDS011;39568;51.026;5.468;2022-10-03T18:25:50;22.75;;;7.72;;
53666;SDS011;39568;51.026;5.468;2022-10-03T18:28:32;14.18;;;7.45;;
53666;SDS011;39568;51.026;5.468;2022-10-03T18:31:09;23.73;;;14.48;;
53666;SDS011;39568;51.026;5.468;2022-10-03T18:33:43;112.22;;;55.60;;
53666;SDS011;39568;51.026;5.468;2022-10-03T18:36:15;82.72;;;37.60;;
53666;SDS011;39568;51.026;5.468;2022-10-03T18:38:46;73.15;;;35.33;;
53666;SDS011;39568;51.026;5.468;2022-10-03T18:41:21;73.55;;;34.40;;
53666;SDS011;39568;51.026;5.468;2022-10-03T18:43:51;54.95;;;26.75;;
53666;SDS011;39568;51.026;5.468;2022-10-03T18:46:23;42.78;;;19.13;;
53666;SDS011;39568;51.026;5.468;2022-10-03T18:48:55;36.15;;;17.77;;
53666;SDS011;39568;51.026;5.468;2022-10-03T18:51:28;32.17;;;15.33;;
53666;SDS011;39568;51.026;5.468;2022-10-03T18:53:58;18.45;;;12.48;;
53666;SDS011;39568;51.026;5.468;2022-10-03T18:56:28;27.50;;;12.20;;
53666;SDS011;39568;51.026;5.468;2022-10-03T19:01:49;25.00;;;9.35;;
53666;SDS011;39568;51.026;5.468;2022-10-03T19:04:19;38.53;;;17.75;;
53666;SDS011;39568;51.026;5.468;2022-10-03T19:06:58;26.25;;;13.93;;
53666;SDS011;39568;51.026;5.468;2022-10-03T19:09:27;32.30;;;16.67;;
53666;SDS011;39568;51.026;5.468;2022-10-03T19:12:00;41.58;;;17.70;;
53666;SDS011;39568;51.026;5.468;2022-10-03T19:14:38;30.35;;;12.48;;
53666;SDS011;39568;51.026;5.468;2022-10-03T19:17:20;25.70;;;10.83;;
53666;SDS011;39568;51.026;5.468;2022-10-03T19:19:55;20.60;;;11.32;;
53666;SDS011;39568;51.026;5.468;2022-10-03T19:22:27;23.60;;;11.50;;
53666;SDS011;39568;51.026;5.468;2022-10-03T19:24:57;27.75;;;11.43;;
53666;SDS011;39568;51.026;5.468;2022-10-03T19:27:37;22.35;;;11.73;;
53666;SDS011;39568;51.026;5.468;2022-10-03T19:30:07;21.42;;;11.07;;
53666;SDS011;39568;51.026;5.468;2022-10-03T19:32:47;26.05;;;12.27;;
53666;SDS011;39568;51.026;5.468;2022-10-03T19:35:19;38.00;;;14.48;;
53666;SDS011;39568;51.026;5.468;2022-10-03T19:37:48;34.63;;;13.63;;
53666;SDS011;39568;51.026;5.468;2022-10-03T19:40:27;32.65;;;15.27;;
53666;SDS011;39568;51.026;5.468;2022-10-03T19:43:17;34.70;;;14.85;;
53666;SDS011;39568;51.026;5.468;2022-10-03T19:46:05;24.67;;;14.00;;